createdAt,value
2022-10-07T00:02:44.489Z,88.94
2022-10-07T00:05:47.228Z,88.71
2022-10-07T00:08:53.008Z,90.73
2022-10-07T00:11:55.607Z,90.00
2022-10-07T00:14:58.130Z,89.08
2022-10-07T00:18:00.649Z,88.92
2022-10-07T00:21:04.779Z,88.89
2022-10-07T00:24:10.336Z,91.04
2022-10-07T00:27:12.873Z,90.68
2022-10-07T00:30:15.426Z,89.53
2022-10-07T00:33:17.943Z,88.61
2022-10-07T00:36:23.626Z,88.65
2022-10-07T00:39:27.511Z,88.89
2022-10-07T00:42:30.872Z,88.73
2022-10-07T00:45:40.572Z,88.88
2022-10-07T00:48:44.722Z,89.37
2022-10-07T00:51:51.815Z,89.49
2022-10-07T00:54:58.653Z,89.71
2022-10-07T00:58:06.532Z,89.21
2022-10-07T01:01:09.796Z,89.26
2022-10-07T01:04:14.600Z,89.62
2022-10-07T01:07:18.187Z,89.57
2022-10-07T01:10:24.298Z,90.10
2022-10-07T01:13:33.085Z,90.16
2022-10-07T01:16:44.304Z,90.48
2022-10-07T01:20:03.825Z,90.79
2022-10-07T01:23:27.969Z,90.22
2022-10-07T01:27:01.063Z,90.66
2022-10-07T01:30:07.008Z,90.39
2022-10-07T01:33:14.944Z,90.37
2022-10-07T01:36:21.357Z,91.00
2022-10-07T01:39:28.466Z,91.12
2022-10-07T01:42:33.318Z,90.84
2022-10-07T01:45:40.022Z,92.07
2022-10-07T01:48:42.538Z,92.48
2022-10-07T01:51:45.434Z,91.85
2022-10-07T01:55:15.336Z,91.32
2022-10-07T01:58:33.312Z,91.43
2022-10-07T02:01:46.970Z,90.97
2022-10-07T02:04:59.679Z,90.54
2022-10-07T02:08:17.310Z,93.49
2022-10-07T02:11:22.814Z,92.95
2022-10-07T02:14:32.270Z,92.35
2022-10-07T02:17:39.376Z,92.18
2022-10-07T02:20:45.497Z,92.18
2022-10-07T02:23:50.236Z,91.60
2022-10-07T02:26:55.401Z,91.47
2022-10-07T02:30:07.642Z,91.78
2022-10-07T02:33:11.374Z,92.56
2022-10-07T02:36:19.314Z,92.26
2022-10-07T02:39:22.455Z,91.38
2022-10-07T02:42:31.286Z,91.66
2022-10-07T02:45:44.254Z,91.60
2022-10-07T02:48:53.698Z,91.89
2022-10-07T02:51:59.960Z,91.79
2022-10-07T02:55:06.138Z,92.22
2022-10-07T02:58:10.003Z,91.83
2022-10-07T03:01:17.682Z,92.67
2022-10-07T03:04:21.422Z,92.92
2022-10-07T03:07:24.984Z,92.27
2022-10-07T03:10:28.961Z,92.57
2022-10-07T03:13:32.104Z,92.27
2022-10-07T03:16:35.956Z,91.94
2022-10-07T03:19:38.854Z,91.56
2022-10-07T03:22:42.413Z,91.57
2022-10-07T03:25:48.977Z,91.98
2022-10-07T03:28:51.433Z,92.17
2022-10-07T03:31:55.381Z,92.46
2022-10-07T03:34:57.900Z,93.04
2022-10-07T03:38:01.000Z,92.61
2022-10-07T03:41:04.467Z,92.18
2022-10-07T03:44:07.061Z,93.38
2022-10-07T03:47:11.437Z,92.83
2022-10-07T03:50:14.510Z,92.13
2022-10-07T03:53:17.096Z,92.75
2022-10-07T03:56:19.573Z,92.23
2022-10-07T03:59:22.249Z,92.80
2022-10-07T04:02:26.095Z,92.71
2022-10-07T04:05:29.063Z,93.05
2022-10-07T04:08:32.878Z,92.65
2022-10-07T04:11:35.485Z,92.06
2022-10-07T04:14:39.095Z,92.14
2022-10-07T04:17:43.762Z,92.02
2022-10-07T04:20:46.381Z,92.92
2022-10-07T04:23:48.908Z,92.33
2022-10-07T04:26:51.397Z,91.92
2022-10-07T04:29:53.902Z,92.48
2022-10-07T04:32:57.731Z,93.08
2022-10-07T04:36:05.483Z,92.45
2022-10-07T04:39:08.083Z,92.03
2022-10-07T04:42:30.949Z,92.88
2022-10-07T04:45:34.032Z,91.72
2022-10-07T04:48:37.993Z,91.72
2022-10-07T04:51:40.480Z,92.32
2022-10-07T04:54:42.959Z,92.40
2022-10-07T04:57:45.687Z,92.05
2022-10-07T05:00:50.548Z,92.63
2022-10-07T05:03:54.474Z,92.86
2022-10-07T05:06:57.000Z,92.93
2022-10-07T05:09:59.529Z,91.98
2022-10-07T05:13:02.199Z,91.98
2022-10-07T05:16:04.832Z,91.95
2022-10-07T05:19:10.452Z,92.21
2022-10-07T05:22:12.936Z,92.87
2022-10-07T05:25:15.933Z,92.00
2022-10-07T05:28:18.673Z,92.37
2022-10-07T05:31:21.939Z,92.67
2022-10-07T05:34:25.762Z,92.45
2022-10-07T05:37:28.350Z,92.15
2022-10-07T05:40:30.847Z,92.29
2022-10-07T05:43:36.382Z,92.82
2022-10-07T05:46:38.975Z,92.27
2022-10-07T05:49:43.172Z,92.63
2022-10-07T05:52:45.648Z,92.48
2022-10-07T05:55:48.142Z,93.18
2022-10-07T05:58:52.454Z,92.58
2022-10-07T06:02:00.080Z,93.54
2022-10-07T06:05:04.072Z,93.28
2022-10-07T06:08:06.557Z,93.07
2022-10-07T06:11:30.047Z,92.59
2022-10-07T06:14:32.562Z,92.50
2022-10-07T06:17:35.043Z,93.12
2022-10-07T06:20:38.869Z,93.23
2022-10-07T06:23:41.346Z,93.20
2022-10-07T06:26:43.880Z,93.47
2022-10-07T06:29:46.352Z,93.49
2022-10-07T06:32:48.834Z,94.11
2022-10-07T06:35:57.260Z,93.67
2022-10-07T06:39:02.435Z,93.91
2022-10-07T06:42:05.083Z,93.58
2022-10-07T06:45:09.214Z,93.44
2022-10-07T06:48:12.509Z,93.33
2022-10-07T06:51:17.973Z,93.19
2022-10-07T06:54:20.462Z,93.60
2022-10-07T07:00:48.866Z,94.37
2022-10-07T07:03:51.380Z,94.15
2022-10-07T07:06:55.196Z,92.89
2022-10-07T07:09:57.838Z,93.47
2022-10-07T07:16:04.103Z,94.74
2022-10-07T07:19:08.651Z,94.42
2022-10-07T07:22:12.743Z,93.22
2022-10-07T07:25:15.333Z,91.95
2022-10-07T07:28:18.701Z,91.62
2022-10-07T07:31:21.519Z,92.03
2022-10-07T07:34:24.059Z,92.92
2022-10-07T07:37:29.511Z,92.51
2022-10-07T07:40:32.018Z,91.88
2022-10-07T07:43:34.542Z,92.91
2022-10-07T07:46:39.689Z,92.38
2022-10-07T07:49:42.151Z,91.30
2022-10-07T07:52:46.005Z,90.18
2022-10-07T07:55:53.484Z,90.46
2022-10-07T07:58:56.895Z,92.22
2022-10-07T08:01:59.806Z,91.64
2022-10-07T08:05:02.356Z,90.38
2022-10-07T08:08:06.167Z,88.90
2022-10-07T08:11:09.274Z,87.55
2022-10-07T08:14:12.790Z,86.42
2022-10-07T08:17:15.294Z,87.15
2022-10-07T08:20:17.989Z,86.79
2022-10-07T08:23:22.031Z,86.71
2022-10-07T08:26:24.623Z,84.98
2022-10-07T08:29:27.313Z,85.63
2022-10-07T08:32:30.988Z,84.35
2022-10-07T08:35:34.523Z,83.25
2022-10-07T08:38:40.344Z,84.09
2022-10-07T08:41:51.986Z,83.14
2022-10-07T08:44:54.830Z,82.45
2022-10-07T08:47:59.643Z,85.04
2022-10-07T08:51:09.818Z,81.33
2022-10-07T08:54:17.162Z,80.74
2022-10-07T08:57:29.586Z,79.96
2022-10-07T09:00:41.808Z,81.98
2022-10-07T09:03:51.917Z,77.67
2022-10-07T09:07:00.503Z,74.27
2022-10-07T09:10:19.018Z,76.05
2022-10-07T09:13:26.050Z,77.82
2022-10-07T09:16:33.094Z,76.15
2022-10-07T09:19:41.050Z,74.08
2022-10-07T09:22:51.065Z,72.67
2022-10-07T09:25:55.210Z,70.23
2022-10-07T09:28:59.570Z,68.63
2022-10-07T09:32:02.052Z,70.06
2022-10-07T09:35:06.013Z,68.49
2022-10-07T09:38:09.254Z,67.21
2022-10-07T09:41:19.613Z,61.62
2022-10-07T09:44:27.266Z,67.03
2022-10-07T09:47:36.007Z,66.13
2022-10-07T09:50:41.225Z,64.86
2022-10-07T09:53:58.809Z,64.52
2022-10-07T09:57:05.234Z,64.75
2022-10-07T10:00:26.355Z,62.13
2022-10-07T10:03:33.266Z,59.14
2022-10-07T10:06:35.946Z,57.86
2022-10-07T10:09:38.494Z,57.46
2022-10-07T10:12:49.352Z,54.78
2022-10-07T10:15:52.184Z,55.61
2022-10-07T10:18:56.558Z,53.48
2022-10-07T10:21:59.350Z,50.24
2022-10-07T10:25:19.746Z,48.12
2022-10-07T10:28:40.081Z,49.14
2022-10-07T10:32:03.213Z,47.36
2022-10-07T10:35:14.731Z,46.81
2022-10-07T10:38:29.952Z,45.74
2022-10-07T10:41:39.934Z,44.57
2022-10-07T10:44:56.003Z,43.91
2022-10-07T10:48:19.618Z,45.69
2022-10-07T10:51:38.227Z,44.50
2022-10-07T10:54:51.371Z,43.79
2022-10-07T10:58:10.263Z,46.07
2022-10-07T11:01:24.822Z,47.27
2022-10-07T11:04:39.474Z,44.79
2022-10-07T11:07:46.552Z,46.83
2022-10-07T11:10:55.216Z,44.46
2022-10-07T11:14:01.766Z,43.82
2022-10-07T11:17:07.639Z,44.16
2022-10-07T11:20:18.122Z,43.58
2022-10-07T11:23:24.651Z,43.14
2022-10-07T11:26:34.759Z,45.25
2022-10-07T11:29:44.203Z,47.02
2022-10-07T11:32:55.867Z,46.97
2022-10-07T11:36:05.056Z,47.51
2022-10-07T11:39:09.525Z,48.22
2022-10-07T11:42:19.546Z,51.43
2022-10-07T11:45:26.405Z,49.01
2022-10-07T11:48:39.722Z,46.70
2022-10-07T11:51:54.224Z,44.76
2022-10-07T11:55:03.740Z,44.80
2022-10-07T11:58:06.663Z,45.40
2022-10-07T12:01:32.410Z,46.83
2022-10-07T12:04:39.914Z,50.26
2022-10-07T12:07:59.215Z,54.66
2022-10-07T12:11:45.317Z,54.91
2022-10-07T12:15:00.190Z,53.31
2022-10-07T12:18:27.587Z,54.39
2022-10-07T12:21:33.001Z,53.92
2022-10-07T12:24:37.306Z,55.02
2022-10-07T12:27:47.226Z,55.11
2022-10-07T12:30:52.012Z,56.48
2022-10-07T12:33:58.434Z,54.21
2022-10-07T12:37:34.174Z,51.28
2022-10-07T12:40:39.357Z,47.14
2022-10-07T12:43:51.000Z,47.40
2022-10-07T12:46:56.788Z,43.67
2022-10-07T12:50:04.663Z,43.03
2022-10-07T12:53:07.168Z,41.39
2022-10-07T12:56:19.486Z,47.30
2022-10-07T12:59:51.070Z,44.78
2022-10-07T13:03:26.881Z,45.07
2022-10-07T13:07:02.679Z,43.62
2022-10-07T13:10:47.050Z,43.11
2022-10-07T13:13:58.985Z,42.98
2022-10-07T13:17:15.254Z,42.35
2022-10-07T13:20:39.222Z,43.83
2022-10-07T13:23:49.178Z,41.66
2022-10-07T13:26:52.175Z,41.37
2022-10-07T13:29:57.401Z,40.33
2022-10-07T13:33:15.565Z,40.54
2022-10-07T13:36:22.407Z,40.95
2022-10-07T13:39:25.740Z,42.71
2022-10-07T13:42:30.862Z,43.71
2022-10-07T13:45:44.945Z,47.21
2022-10-07T13:48:48.270Z,49.11
2022-10-07T13:51:55.477Z,51.01
2022-10-07T13:54:58.719Z,51.47
2022-10-07T13:58:04.330Z,50.52
2022-10-07T14:01:08.723Z,50.70
2022-10-07T14:04:24.887Z,51.68
2022-10-07T14:07:29.076Z,52.12
2022-10-07T14:10:32.354Z,55.17
2022-10-07T14:13:37.785Z,54.09
2022-10-07T14:16:41.707Z,54.14
2022-10-07T14:19:44.592Z,55.40
2022-10-07T14:22:51.006Z,56.21
2022-10-07T14:25:56.099Z,55.43
2022-10-07T14:28:58.588Z,55.69
2022-10-07T14:32:30.066Z,57.99
2022-10-07T14:35:33.927Z,58.21
2022-10-07T14:38:38.055Z,59.07
2022-10-07T14:41:40.553Z,60.06
2022-10-07T14:44:43.926Z,61.75
2022-10-07T14:47:47.858Z,58.80
2022-10-07T14:50:51.674Z,59.17
2022-10-07T14:53:57.752Z,59.35
2022-10-07T14:57:00.245Z,61.80
2022-10-07T15:00:03.030Z,62.28
2022-10-07T15:03:06.969Z,63.58
2022-10-07T15:06:09.440Z,63.38
2022-10-07T15:09:13.766Z,62.83
2022-10-07T15:12:16.890Z,64.53
2022-10-07T15:15:19.678Z,65.94
2022-10-07T15:18:23.737Z,65.77
2022-10-07T15:21:26.310Z,64.56
2022-10-07T15:24:28.996Z,68.96
2022-10-07T15:27:32.039Z,65.82
2022-10-07T15:30:39.271Z,65.33
2022-10-07T15:33:44.277Z,65.67
2022-10-07T15:36:47.914Z,66.46
2022-10-07T15:39:51.289Z,66.60
2022-10-07T15:42:53.785Z,69.57
2022-10-07T15:45:58.814Z,66.04
2022-10-07T15:49:03.709Z,67.09
2022-10-07T15:52:06.649Z,67.43
2022-10-07T15:55:09.705Z,68.55
2022-10-07T15:58:12.193Z,69.92
2022-10-07T16:01:15.353Z,68.66
2022-10-07T16:04:20.168Z,70.05
2022-10-07T16:07:23.876Z,69.16
2022-10-07T16:10:26.409Z,72.32
2022-10-07T16:13:29.389Z,71.70
2022-10-07T16:16:33.106Z,73.85
2022-10-07T16:19:36.959Z,70.84
2022-10-07T16:22:39.438Z,72.38
2022-10-07T16:25:41.922Z,71.50
2022-10-07T16:29:03.566Z,73.83
2022-10-07T16:32:10.446Z,70.94
2022-10-07T16:35:14.273Z,72.87
2022-10-07T16:38:16.759Z,69.96
2022-10-07T16:41:20.282Z,71.59
2022-10-07T16:44:23.616Z,70.58
2022-10-07T16:47:26.104Z,71.04
2022-10-07T16:50:29.916Z,70.54
2022-10-07T16:53:32.402Z,70.70
2022-10-07T16:56:36.409Z,71.04
2022-10-07T16:59:39.556Z,71.91
2022-10-07T17:02:42.057Z,71.34
2022-10-07T17:05:45.889Z,71.03
2022-10-07T17:08:48.896Z,73.18
2022-10-07T17:11:51.878Z,71.95
2022-10-07T17:14:54.372Z,73.70
2022-10-07T17:17:56.832Z,72.65
2022-10-07T17:21:00.901Z,72.88
2022-10-07T17:24:03.473Z,73.63
2022-10-07T17:27:08.829Z,72.89
2022-10-07T17:30:16.150Z,71.67
2022-10-07T17:33:19.636Z,71.51
2022-10-07T17:36:23.841Z,73.03
2022-10-07T17:39:26.378Z,72.37
2022-10-07T17:42:28.902Z,71.40
2022-10-07T17:45:35.135Z,73.18
2022-10-07T17:48:38.027Z,72.73
2022-10-07T17:51:43.868Z,73.76
2022-10-07T17:54:46.398Z,72.52
2022-10-07T17:57:50.419Z,74.32
2022-10-07T18:00:53.105Z,73.27
2022-10-07T18:03:57.875Z,73.47
2022-10-07T18:07:01.682Z,73.60
2022-10-07T18:10:04.375Z,73.80
2022-10-07T18:13:24.193Z,74.54
2022-10-07T18:16:26.982Z,74.82
2022-10-07T18:19:30.132Z,75.92
2022-10-07T18:22:34.425Z,74.53
2022-10-07T18:25:39.746Z,74.88
2022-10-07T18:28:42.496Z,74.74
2022-10-07T18:31:45.042Z,74.65
2022-10-07T18:34:47.630Z,75.51
2022-10-07T18:37:53.274Z,74.43
2022-10-07T18:41:00.545Z,75.62
2022-10-07T18:44:03.051Z,76.46
2022-10-07T18:47:05.546Z,77.93
2022-10-07T18:50:08.654Z,76.44
2022-10-07T18:53:12.479Z,77.30
2022-10-07T18:56:16.501Z,76.24
2022-10-07T18:59:20.009Z,77.35
2022-10-07T19:02:22.539Z,76.05
2022-10-07T19:05:25.099Z,76.99
2022-10-07T19:08:28.908Z,77.28
2022-10-07T19:11:31.528Z,76.59
2022-10-07T19:14:34.731Z,76.42
2022-10-07T19:17:37.221Z,77.52
2022-10-07T19:20:40.305Z,77.87
2022-10-07T19:23:44.116Z,78.46
2022-10-07T19:26:49.808Z,77.22
2022-10-07T19:29:52.315Z,79.05
2022-10-07T19:32:54.880Z,77.86
2022-10-07T19:35:57.377Z,77.97
2022-10-07T19:39:01.972Z,79.12
2022-10-07T19:42:04.796Z,79.53
2022-10-07T19:45:09.244Z,78.91
2022-10-07T19:48:14.610Z,78.61
2022-10-07T19:51:19.686Z,77.16
2022-10-07T19:54:23.487Z,78.71
2022-10-07T19:57:25.993Z,79.04
2022-10-07T20:00:30.550Z,77.54
2022-10-07T20:03:33.199Z,78.98
2022-10-07T20:06:37.464Z,79.94
2022-10-07T20:09:41.318Z,79.02
2022-10-07T20:12:44.552Z,80.01
2022-10-07T20:15:47.035Z,78.63
2022-10-07T20:18:51.757Z,79.25
2022-10-07T20:21:54.309Z,81.25
2022-10-07T20:24:58.141Z,80.50
2022-10-07T20:28:00.649Z,79.79
2022-10-07T20:31:04.682Z,80.66
2022-10-07T20:34:09.630Z,80.61
2022-10-07T20:37:12.434Z,80.90
2022-10-07T20:40:42.458Z,81.95
2022-10-07T20:43:44.952Z,81.33
2022-10-07T20:46:51.598Z,82.32
2022-10-07T20:49:56.560Z,82.74
2022-10-07T20:52:59.046Z,81.88
2022-10-07T20:56:04.933Z,83.09
2022-10-07T20:59:07.401Z,83.38
2022-10-07T21:02:11.048Z,83.64
2022-10-07T21:05:13.542Z,84.18
2022-10-07T21:08:16.012Z,84.05
2022-10-07T21:11:20.043Z,84.40
2022-10-07T21:14:22.659Z,83.91
2022-10-07T21:17:25.216Z,84.15
2022-10-07T21:20:27.701Z,83.92
2022-10-07T21:23:30.918Z,84.79
2022-10-07T21:26:34.999Z,85.46
2022-10-07T21:29:40.813Z,83.82
2022-10-07T21:32:44.186Z,85.36
2022-10-07T21:35:47.367Z,85.11
2022-10-07T21:38:55.351Z,83.48
2022-10-07T21:41:59.707Z,84.01
2022-10-07T21:45:02.210Z,84.66
2022-10-07T21:48:04.802Z,84.03
2022-10-07T21:51:09.830Z,84.57
2022-10-07T21:54:15.211Z,84.02
2022-10-07T21:57:19.202Z,84.58
2022-10-07T22:00:21.682Z,83.93
2022-10-07T22:03:24.242Z,84.82
2022-10-07T22:06:41.706Z,84.55
2022-10-07T22:09:44.184Z,84.56
2022-10-07T22:12:48.373Z,84.56
2022-10-07T22:15:51.271Z,84.06
2022-10-07T22:18:55.797Z,84.20
2022-10-07T22:21:58.648Z,83.76
2022-10-07T22:25:01.184Z,84.67
2022-10-07T22:28:05.076Z,85.01
2022-10-07T22:31:10.680Z,84.36
2022-10-07T22:34:33.515Z,85.28
2022-10-07T22:37:36.004Z,84.83
2022-10-07T22:40:39.512Z,85.29
2022-10-07T22:43:45.239Z,85.25
2022-10-07T22:46:47.746Z,84.38
2022-10-07T22:49:50.191Z,85.33
2022-10-07T22:52:53.430Z,84.56
2022-10-07T22:55:55.896Z,84.83
2022-10-07T22:59:00.700Z,84.92
2022-10-07T23:02:03.227Z,84.53
2022-10-07T23:05:06.516Z,85.21
2022-10-07T23:08:09.818Z,85.53
2022-10-07T23:11:16.557Z,85.95
2022-10-07T23:14:20.407Z,84.32
2022-10-07T23:17:22.876Z,85.38
2022-10-07T23:20:25.594Z,84.53
2022-10-07T23:23:28.214Z,85.24
2022-10-07T23:26:31.677Z,85.10
2022-10-07T23:29:35.498Z,84.78
2022-10-07T23:32:38.010Z,85.46
2022-10-07T23:35:40.514Z,84.91
2022-10-07T23:38:44.637Z,85.32
2022-10-07T23:41:47.116Z,85.54
2022-10-07T23:44:50.945Z,86.40
2022-10-07T23:47:53.423Z,87.05
2022-10-07T23:50:56.062Z,85.46
2022-10-07T23:53:59.370Z,85.92
2022-10-07T23:57:01.870Z,85.45
